Time;durP1;ratioP1;P1;durP2;ratioP2;P2;SDS_P1;SDS_P2;PMS_P1;PMS_P2;Temp;Humidity;BMP_temperature;BMP_pressure;BME280_temperature;BME280_humidity;BME280_pressure;Samples;Min_cycle;Max_cycle;Signal;HPM_P1;HPM_P2
2023/05/20 00:01:02;;;;;;;3.80;2.40;;;11.00;99.90;;;10.66;100.00;97346.59;4970312;28;20316;-36
2023/05/20 00:03:28;;;;;;;3.50;2.42;;;11.00;99.90;;;10.65;100.00;97343.06;4967923;28;20045;-36
2023/05/20 00:05:54;;;;;;;6.30;3.05;;;11.00;99.90;;;10.65;100.00;97344.84;4966594;28;20038;-36
2023/05/20 00:08:20;;;;;;;4.97;2.88;;;11.00;99.90;;;10.63;100.00;97346.69;4974319;28;20034;-36
2023/05/20 00:10:45;;;;;;;4.38;3.15;;;11.00;99.90;;;10.61;100.00;97346.75;4969885;28;20838;-36
2023/05/20 00:13:11;;;;;;;7.88;3.20;;;10.90;99.90;;;10.58;100.00;97348.63;4973828;28;20027;-36
2023/05/20 00:15:37;;;;;;;3.97;2.92;;;10.90;99.90;;;10.53;100.00;97345.31;4966232;28;20022;-36
2023/05/20 00:18:03;;;;;;;6.63;3.17;;;10.90;99.90;;;10.54;100.00;97344.41;4969379;28;20033;-36
2023/05/20 00:20:29;;;;;;;6.00;2.78;;;10.90;99.90;;;10.54;100.00;97339.13;4974376;28;20386;-36
2023/05/20 00:22:55;;;;;;;5.75;3.15;;;10.90;99.90;;;10.54;100.00;97337.34;4973031;28;20035;-36
2023/05/20 00:25:20;;;;;;;6.47;3.20;;;10.90;99.90;;;10.57;100.00;97339.00;4976149;28;20038;-36
2023/05/20 00:27:46;;;;;;;4.63;2.97;;;10.90;99.90;;;10.60;100.00;97341.53;4972678;28;20104;-36
2023/05/20 00:30:12;;;;;;;5.50;3.08;;;10.90;99.90;;;10.63;100.00;97341.41;4975771;28;20034;-36
2023/05/20 00:32:38;;;;;;;6.10;3.10;;;11.00;99.90;;;10.66;100.00;97338.66;4976443;28;20033;-36
2023/05/20 00:35:05;;;;;;;6.18;3.08;;;11.00;99.90;;;10.70;100.00;97334.97;4975659;28;20141;-36
2023/05/20 00:37:31;;;;;;;6.20;3.45;;;11.00;99.90;;;10.74;100.00;97341.00;4975852;28;20034;-36
2023/05/20 00:39:56;;;;;;;4.40;2.95;;;11.10;99.90;;;10.76;100.00;97340.00;4974860;28;20038;-36
2023/05/20 00:42:27;;;;;;;5.70;3.13;;;11.10;99.90;;;10.76;100.00;97332.09;4977140;28;20110;-36
2023/05/20 00:44:54;;;;;;;6.35;3.53;;;11.10;99.90;;;10.74;100.00;97330.44;4975462;28;20034;-36
2023/05/20 00:47:26;;;;;;;5.18;3.45;;;11.10;99.90;;;10.77;100.00;97335.63;4976288;28;20057;-36
2023/05/20 00:49:51;;;;;;;5.07;3.35;;;11.10;99.90;;;10.78;100.00;97335.53;4971813;28;20025;-36
2023/05/20 00:52:21;;;;;;;5.20;3.08;;;11.20;99.90;;;10.76;100.00;97325.97;4975050;28;20491;-36
2023/05/20 00:54:48;;;;;;;7.70;3.13;;;11.20;99.90;;;10.82;100.00;97345.06;4973444;28;20030;-36
2023/05/20 00:57:15;;;;;;;4.85;3.08;;;11.20;99.90;;;10.80;100.00;97322.28;4973100;28;20081;-36
2023/05/20 00:59:41;;;;;;;6.13;3.40;;;11.20;99.90;;;10.88;100.00;97333.41;4975645;28;20061;-37
2023/05/20 01:02:07;;;;;;;5.15;3.60;;;11.30;99.90;;;10.73;100.00;97308.50;4973799;28;21821;-36
2023/05/20 01:04:33;;;;;;;5.45;3.50;;;11.30;99.90;;;10.86;100.00;97324.69;4974652;28;20035;-36
2023/05/20 01:07:03;;;;;;;3.90;3.20;;;11.30;99.90;;;10.94;100.00;97327.88;4973371;28;20041;-36
2023/05/20 01:09:30;;;;;;;8.63;3.70;;;11.30;99.90;;;10.96;100.00;97335.75;4993248;28;20026;-36
2023/05/20 01:12:19;;;;;;;5.40;3.50;;;11.40;99.90;;;10.99;100.00;97327.72;4974156;28;20401;-36
2023/05/20 01:14:57;;;;;;;6.57;3.22;;;11.40;99.90;;;11.01;100.00;97328.50;4970250;28;20045;-36
2023/05/20 01:17:26;;;;;;;4.32;3.13;;;11.40;99.90;;;11.03;100.00;97329.28;4990794;28;22020;-36
2023/05/20 01:19:54;;;;;;;4.47;3.00;;;11.40;99.90;;;11.05;100.00;97323.06;4964169;28;20069;-36
2023/05/20 01:22:27;;;;;;;6.70;2.83;;;11.40;99.90;;;11.02;100.00;97314.41;4972181;28;20606;-36
2023/05/20 01:24:53;;;;;;;5.57;3.55;;;11.40;99.90;;;11.05;100.00;97324.81;4966138;28;20034;-36
2023/05/20 01:27:24;;;;;;;5.82;3.22;;;11.40;99.90;;;11.05;100.00;97306.34;4970589;28;20038;-36
2023/05/20 01:29:51;;;;;;;7.93;3.65;;;11.40;99.90;;;11.04;100.00;97321.31;4971354;28;20027;-36
2023/05/20 01:32:22;;;;;;;5.47;3.42;;;11.50;99.90;;;11.04;100.00;97312.56;4972338;28;20117;-36
2023/05/20 01:34:50;;;;;;;5.18;3.20;;;11.40;99.90;;;11.03;100.00;97316.09;4987078;28;20034;-36
2023/05/20 01:37:18;;;;;;;6.47;3.20;;;11.40;99.90;;;11.05;100.00;97315.13;4973082;28;20035;-36
2023/05/20 01:39:48;;;;;;;4.60;3.15;;;11.40;99.90;;;10.93;100.00;97288.34;4975468;28;20045;-36
2023/05/20 01:42:16;;;;;;;6.55;3.38;;;11.40;99.90;;;11.02;100.00;97301.22;4980680;28;20044;-36
2023/05/20 01:44:42;;;;;;;4.40;3.30;;;11.40;99.90;;;11.00;100.00;97303.91;4973744;28;20042;-36
2023/05/20 01:47:08;;;;;;;6.00;3.60;;;11.40;99.90;;;10.98;100.00;97311.03;4971520;28;20154;-36
2023/05/20 01:49:34;;;;;;;4.28;3.28;;;11.40;99.90;;;10.94;100.00;97305.91;4976625;28;20459;-36
2023/05/20 01:51:59;;;;;;;6.80;4.07;;;11.40;99.90;;;10.98;100.00;97310.16;4972117;28;20030;-36
2023/05/20 01:54:25;;;;;;;5.85;3.47;;;11.40;99.90;;;10.95;100.00;97305.00;4973308;28;20023;-36
2023/05/20 01:56:51;;;;;;;5.25;3.13;;;11.40;99.90;;;10.97;100.00;97316.38;4971047;28;20490;-36
2023/05/20 01:59:17;;;;;;;6.80;3.67;;;11.30;99.90;;;10.96;100.00;97317.25;4973040;28;20065;-36
2023/05/20 02:01:42;;;;;;;5.18;3.42;;;11.40;99.90;;;10.85;100.00;97296.59;4968041;28;20519;-36
2023/05/20 02:04:08;;;;;;;6.80;3.42;;;11.40;99.90;;;10.93;100.00;97305.06;4975684;28;20126;-36
2023/05/20 02:06:34;;;;;;;7.93;3.33;;;11.30;99.90;;;10.90;100.00;97307.81;4973041;28;20066;-36
2023/05/20 02:09:00;;;;;;;4.82;3.35;;;11.40;99.90;;;10.83;100.00;97308.97;4970712;28;20030;-36
2023/05/20 02:11:25;;;;;;;5.22;3.53;;;11.20;99.90;;;10.75;100.00;97298.75;4969569;28;20038;-36
2023/05/20 02:13:51;;;;;;;6.18;3.30;;;11.20;99.90;;;10.67;100.00;97298.16;4972942;28;20533;-36
2023/05/20 02:16:17;;;;;;;6.82;3.25;;;11.10;99.90;;;10.59;100.00;97295.84;4972145;28;20494;-36
2023/05/20 02:18:43;;;;;;;6.85;3.63;;;11.10;99.90;;;10.49;100.00;97294.47;4971828;28;20039;-36
2023/05/20 02:21:09;;;;;;;5.90;3.83;;;10.90;99.90;;;10.39;100.00;97293.09;4974984;28;20037;-36
2023/05/20 02:23:34;;;;;;;4.35;3.70;;;10.80;99.90;;;10.32;100.00;97293.34;4973301;28;20116;-36
2023/05/20 02:26:01;;;;;;;6.57;3.45;;;10.80;99.90;;;10.25;100.00;97304.13;4974120;28;20522;-36
2023/05/20 02:28:26;;;;;;;7.50;3.22;;;10.70;99.90;;;10.14;100.00;97299.25;4973446;28;20522;-36
2023/05/20 02:30:52;;;;;;;9.05;3.53;;;10.60;99.90;;;10.07;100.00;97300.41;4965873;28;20198;-36
2023/05/20 02:33:18;;;;;;;4.72;3.67;;;10.50;99.90;;;10.02;100.00;97300.56;4971767;28;20495;-36
2023/05/20 02:35:44;;;;;;;4.85;3.72;;;10.50;99.90;;;9.95;100.00;97301.69;4971070;28;20033;-36
2023/05/20 02:38:11;;;;;;;7.47;3.60;;;10.40;99.90;;;9.91;100.00;97303.59;4970624;28;20034;-36
2023/05/20 02:40:37;;;;;;;5.40;3.90;;;10.40;99.90;;;9.83;100.00;97295.09;4973660;28;20022;-36
2023/05/20 02:43:03;;;;;;;5.47;3.83;;;10.30;99.90;;;9.83;100.00;97304.75;4974505;28;20041;-36
2023/05/20 02:45:29;;;;;;;4.30;3.90;;;10.30;99.90;;;9.78;100.00;97298.78;4974018;28;20038;-36
2023/05/20 02:47:55;;;;;;;4.55;3.90;;;10.30;99.90;;;9.74;100.00;97300.69;4970016;28;20119;-36
2023/05/20 02:50:21;;;;;;;6.13;3.78;;;10.20;99.90;;;9.70;100.00;97301.72;4970666;28;20456;-36
2023/05/20 02:52:46;;;;;;;8.75;4.63;;;10.20;99.90;;;9.64;100.00;97292.25;4967928;28;20610;-36
2023/05/20 02:55:13;;;;;;;7.93;4.13;;;10.10;99.90;;;9.61;100.00;97294.97;4967690;28;20038;-36
2023/05/20 02:57:39;;;;;;;6.88;4.50;;;10.10;99.90;;;9.61;100.00;97294.97;4948710;28;20049;-36
2023/05/20 03:00:10;;;;;;;5.97;4.22;;;10.10;99.90;;;9.48;100.00;97278.75;4967444;28;20395;-36
2023/05/20 03:02:36;;;;;;;6.68;4.65;;;10.10;99.90;;;9.60;100.00;97298.53;4972273;28;20034;-36
2023/05/20 03:05:04;;;;;;;5.07;3.70;;;10.10;99.90;;;9.63;100.00;97300.19;4969678;28;20632;-36
2023/05/20 03:07:30;;;;;;;6.22;3.50;;;10.10;99.90;;;9.60;100.00;97290.66;4964854;28;20293;-36
2023/05/20 03:09:58;;;;;;;4.13;3.60;;;10.10;99.90;;;9.65;100.00;97301.84;4969430;28;20069;-36
2023/05/20 03:12:25;;;;;;;5.07;3.35;;;10.10;99.90;;;9.64;100.00;97294.88;4971226;28;20036;-36
2023/05/20 03:14:54;;;;;;;6.03;3.78;;;10.10;99.90;;;9.64;100.00;97299.31;4970855;28;20093;-36
2023/05/20 03:17:22;;;;;;;6.50;3.70;;;10.00;99.90;;;9.64;100.00;97292.25;4968479;28;20038;-36
2023/05/20 03:19:48;;;;;;;7.03;4.05;;;10.10;99.90;;;9.62;100.00;97291.44;4970989;28;20403;-37
2023/05/20 03:22:14;;;;;;;6.53;3.63;;;10.10;99.90;;;9.67;100.00;97300.06;4969331;28;20514;-36
2023/05/20 03:24:41;;;;;;;7.30;4.10;;;10.10;99.90;;;9.68;100.00;97291.22;4974581;28;20041;-36
2023/05/20 03:27:06;;;;;;;7.18;3.47;;;10.10;99.90;;;9.71;100.00;97304.28;4970144;28;20041;-36
2023/05/20 03:29:32;;;;;;;4.38;3.10;;;10.10;99.90;;;9.70;100.00;97297.28;4971865;28;20034;-36
2023/05/20 03:31:58;;;;;;;4.72;3.88;;;10.10;99.90;;;9.63;100.00;97284.41;4972797;28;20418;-36
2023/05/20 03:34:26;;;;;;;7.35;3.90;;;10.10;99.90;;;9.64;100.00;97294.03;4970984;28;20022;-36
2023/05/20 03:36:52;;;;;;;4.82;3.53;;;10.10;99.90;;;9.57;100.00;97290.75;4968255;28;20311;-36
2023/05/20 03:39:18;;;;;;;5.47;3.65;;;10.00;99.90;;;9.51;100.00;97278.66;4971373;28;20084;-36
2023/05/20 03:41:44;;;;;;;4.55;3.58;;;10.00;99.90;;;9.55;100.00;97296.06;4969942;28;20038;-36
2023/05/20 03:44:09;;;;;;;5.00;3.95;;;10.00;99.90;;;9.49;100.00;97298.03;4974233;28;20042;-36
2023/05/20 03:46:35;;;;;;;5.07;3.67;;;9.90;99.90;;;9.45;100.00;97304.31;4969973;28;20041;-36
2023/05/20 03:49:01;;;;;;;6.03;3.80;;;9.80;99.90;;;9.44;100.00;97313.13;4967213;28;20038;-36
2023/05/20 03:51:27;;;;;;;6.13;3.53;;;9.80;99.90;;;9.44;100.00;97310.50;4969803;28;20582;-36
2023/05/20 03:53:52;;;;;;;6.70;4.40;;;9.80;99.90;;;9.46;100.00;97306.91;4971056;28;20034;-36
2023/05/20 03:56:18;;;;;;;4.93;3.60;;;9.90;99.90;;;9.55;100.00;97314.50;4974592;28;20494;-36
2023/05/20 03:58:44;;;;;;;6.53;4.20;;;10.00;99.90;;;9.64;100.00;97305.41;4971260;28;20454;-36
2023/05/20 04:01:12;;;;;;;9.25;4.78;;;10.00;99.90;;;9.71;100.00;97306.06;4969882;28;20478;-36
2023/05/20 04:03:37;;;;;;;5.75;4.18;;;10.10;99.90;;;9.80;100.00;97302.22;4972894;28;20050;-36
2023/05/20 04:06:03;;;;;;;6.57;3.60;;;10.20;99.90;;;9.91;100.00;97302.72;4971274;28;20491;-36
2023/05/20 04:08:29;;;;;;;4.82;3.90;;;10.30;99.90;;;10.00;100.00;97302.41;4963791;28;20077;-36
2023/05/20 04:10:56;;;;;;;5.95;3.92;;;10.40;99.90;;;10.09;100.00;97299.41;4968859;28;20680;-36
2023/05/20 04:13:24;;;;;;;6.25;4.18;;;10.50;99.90;;;10.18;100.00;97305.28;4965686;28;20045;-36
2023/05/20 04:15:51;;;;;;;7.30;3.88;;;10.60;99.90;;;10.17;100.00;97290.38;4967347;28;20030;-36
2023/05/20 04:18:18;;;;;;;5.93;3.55;;;10.60;99.90;;;10.35;100.00;97308.16;4968006;28;20031;-36
2023/05/20 04:20:45;;;;;;;4.25;3.30;;;10.70;99.90;;;10.44;100.00;97301.69;4966015;28;20282;-36
2023/05/20 04:23:10;;;;;;;8.57;3.95;;;10.80;99.90;;;10.54;100.00;97303.06;4971078;28;20034;-36
2023/05/20 04:25:36;;;;;;;6.97;3.50;;;10.90;99.90;;;10.62;100.00;97300.13;4970010;28;20026;-36
2023/05/20 04:28:02;;;;;;;4.60;3.42;;;11.00;99.90;;;10.68;100.00;97300.75;4966180;28;20046;-36
2023/05/20 04:30:27;;;;;;;6.63;3.90;;;11.10;99.90;;;10.78;100.00;97300.38;4964223;28;20138;-36
2023/05/20 04:32:53;;;;;;;4.43;3.55;;;11.20;99.90;;;10.85;100.00;97299.22;4967665;28;20042;-36
2023/05/20 04:35:19;;;;;;;6.05;3.65;;;11.20;99.90;;;10.92;100.00;97300.69;4969690;28;20035;-36
2023/05/20 04:37:48;;;;;;;6.50;3.35;;;11.30;99.90;;;11.00;100.00;97298.63;4964535;28;20028;-36
2023/05/20 04:40:14;;;;;;;4.85;3.33;;;11.40;99.90;;;11.05;100.00;97277.31;4967170;28;20074;-36
2023/05/20 04:42:39;;;;;;;6.03;3.88;;;11.40;99.90;;;11.04;100.00;97286.16;4968689;28;20509;-36
2023/05/20 04:45:07;;;;;;;4.90;3.47;;;11.50;99.90;;;11.10;100.00;97280.63;4973828;28;20045;-36
2023/05/20 04:47:37;;;;;;;5.30;3.38;;;11.50;99.90;;;11.10;100.00;97279.78;4971863;28;20034;-36
2023/05/20 04:50:12;;;;;;;5.00;3.83;;;11.50;99.90;;;11.06;100.00;97282.53;4970549;28;20097;-36
2023/05/20 04:52:38;;;;;;;4.50;3.40;;;11.50;99.90;;;11.09;100.00;97284.19;4967532;28;20125;-36
2023/05/20 04:55:09;;;;;;;6.82;2.95;;;11.50;99.90;;;11.11;100.00;97282.34;4970846;28;20053;-36
2023/05/20 04:57:37;;;;;;;7.47;3.90;;;11.50;99.90;;;11.14;100.00;97278.72;4963189;28;20027;-36
2023/05/20 05:00:06;;;;;;;5.28;3.60;;;11.50;99.90;;;11.17;100.00;97287.38;4965088;28;20046;-36
2023/05/20 05:02:33;;;;;;;4.93;3.45;;;11.50;99.90;;;11.20;100.00;97289.03;4967309;28;20035;-36
2023/05/20 05:04:58;;;;;;;4.65;3.55;;;11.60;99.90;;;11.24;100.00;97288.84;4973041;28;20038;-36
2023/05/20 05:07:24;;;;;;;4.93;3.80;;;11.60;99.90;;;11.28;100.00;97287.78;4973324;28;20035;-36
2023/05/20 05:09:50;;;;;;;5.63;3.67;;;11.70;99.90;;;11.36;100.00;97294.50;4970206;28;20069;-36
2023/05/20 05:12:16;;;;;;;5.30;3.15;;;11.70;99.90;;;11.40;100.00;97289.06;4975739;28;20022;-36
2023/05/20 05:14:41;;;;;;;4.30;3.60;;;11.80;99.90;;;11.53;100.00;97286.75;4971939;28;20399;-36
2023/05/20 05:17:07;;;;;;;5.05;3.40;;;11.90;99.90;;;11.64;100.00;97287.16;4974282;28;20051;-36
2023/05/20 05:19:33;;;;;;;6.25;3.80;;;12.00;99.90;;;11.79;100.00;97282.13;4967596;28;20049;-36
2023/05/20 05:21:58;;;;;;;6.68;4.07;;;12.10;99.90;;;11.91;100.00;97286.91;4969909;28;20046;-36
2023/05/20 05:24:24;;;;;;;4.78;3.78;;;12.30;99.90;;;11.99;100.00;97281.31;4973060;28;20026;-36
2023/05/20 05:26:58;;;;;;;4.60;3.60;;;12.40;99.90;;;12.14;100.00;97283.25;4971888;28;20126;-36
2023/05/20 05:29:24;;;;;;;4.47;3.17;;;12.50;99.90;;;12.25;100.00;97280.09;4970216;28;20065;-36
2023/05/20 05:31:50;;;;;;;5.70;3.42;;;12.60;99.90;;;12.34;100.00;97278.84;4973557;28;20121;-36
2023/05/20 05:34:15;;;;;;;4.93;3.58;;;12.60;99.90;;;12.41;100.00;97275.81;4971102;28;20073;-36
2023/05/20 05:36:41;;;;;;;6.35;3.63;;;12.70;99.90;;;12.47;100.00;97271.19;4972538;28;20037;-36
2023/05/20 05:39:07;;;;;;;4.55;3.72;;;12.80;99.90;;;12.58;100.00;97268.91;4969889;28;20446;-36
2023/05/20 05:41:32;;;;;;;4.50;3.35;;;12.90;99.90;;;12.70;100.00;97268.31;4975445;28;20148;-36
2023/05/20 05:43:58;;;;;;;5.10;3.35;;;13.00;99.90;;;12.76;100.00;97260.09;4974910;28;20040;-36
2023/05/20 05:46:24;;;;;;;4.30;3.60;;;13.10;99.90;;;12.86;100.00;97263.16;4973198;28;20092;-36
2023/05/20 05:48:50;;;;;;;5.57;3.65;;;13.20;99.90;;;12.97;100.00;97252.03;4965643;28;20033;-36
2023/05/20 05:51:16;;;;;;;6.68;3.50;;;13.30;99.90;;;13.08;100.00;97259.44;4974282;28;20122;-36
2023/05/20 05:53:42;;;;;;;4.85;3.50;;;13.40;99.90;;;13.01;100.00;97231.56;4972097;28;20222;-36
2023/05/20 05:56:09;;;;;;;5.93;3.25;;;13.50;99.90;;;13.26;100.00;97260.31;4974648;28;20450;-36
2023/05/20 05:58:35;;;;;;;6.03;3.17;;;13.60;99.90;;;13.35;100.00;97263.41;4974435;28;20110;-36
2023/05/20 06:01:00;;;;;;;4.80;3.72;;;13.70;99.90;;;13.43;100.00;97263.03;4969362;28;20092;-36
2023/05/20 06:03:28;;;;;;;4.18;3.13;;;13.70;99.90;;;13.49;100.00;97245.97;4970642;28;20038;-36
2023/05/20 06:05:54;;;;;;;5.95;3.33;;;13.80;99.90;;;13.72;100.00;97253.56;4973444;28;20692;-36
2023/05/20 06:08:20;;;;;;;4.95;3.78;;;14.00;99.90;;;13.79;100.00;97247.97;4970348;28;20037;-36
2023/05/20 06:10:48;;;;;;;5.05;4.00;;;14.20;99.90;;;14.06;100.00;97259.75;4971345;28;20027;-36
2023/05/20 06:13:14;;;;;;;4.43;3.22;;;14.40;99.90;;;14.27;100.00;97265.72;4974010;28;20109;-36
2023/05/20 06:15:40;;;;;;;5.82;3.72;;;14.60;99.90;;;14.48;100.00;97258.41;4974824;28;20121;-36
2023/05/20 06:18:06;;;;;;;5.03;3.30;;;14.70;99.90;;;14.63;100.00;97262.03;4974255;28;20041;-36
2023/05/20 06:20:32;;;;;;;6.00;4.00;;;14.90;99.90;;;14.68;100.00;97256.47;4962166;28;20034;-36
2023/05/20 06:22:57;;;;;;;8.80;4.13;;;15.10;99.90;;;14.84;100.00;97248.47;4971196;28;20041;-36
2023/05/20 06:25:24;;;;;;;6.25;4.22;;;15.30;99.90;;;15.08;100.00;97256.88;4972442;28;20076;-36
2023/05/20 06:27:50;;;;;;;6.60;4.40;;;15.40;99.90;;;15.23;100.00;97263.06;4969175;28;20027;-36
2023/05/20 06:30:16;;;;;;;6.25;4.05;;;15.50;99.90;;;15.28;100.00;97253.91;4971094;28;20026;-36
2023/05/20 06:32:42;;;;;;;4.35;3.92;;;15.60;99.90;;;15.30;100.00;97261.78;4970323;28;20027;-36
2023/05/20 06:35:08;;;;;;;7.43;4.80;;;15.70;99.90;;;15.37;100.00;97249.84;4972775;28;20122;-36
2023/05/20 06:37:34;;;;;;;7.55;4.65;;;15.80;99.90;;;15.60;100.00;97252.97;4971023;28;20026;-36
2023/05/20 06:40:00;;;;;;;8.25;4.43;;;16.00;99.90;;;15.65;100.00;97248.22;4970400;28;20093;-36
2023/05/20 06:42:25;;;;;;;6.25;4.72;;;16.10;99.90;;;15.59;100.00;97252.09;4972750;28;20022;-36
2023/05/20 06:44:51;;;;;;;6.93;4.40;;;16.10;99.90;;;15.66;100.00;97247.25;4970429;28;20566;-37
2023/05/20 06:47:17;;;;;;;7.80;4.90;;;16.10;99.90;;;15.65;100.00;97230.47;4968164;28;20038;-36
2023/05/20 06:49:43;;;;;;;5.32;4.25;;;16.20;99.90;;;15.73;100.00;97245.94;4964411;28;20031;-36
2023/05/20 06:52:09;;;;;;;7.25;4.35;;;16.20;99.90;;;15.86;100.00;97248.75;4969956;28;20141;-36
2023/05/20 06:54:40;;;;;;;6.75;4.82;;;16.20;99.90;;;15.77;100.00;97236.00;4970058;28;20482;-36
2023/05/20 06:57:07;;;;;;;11.13;5.03;;;16.30;99.90;;;15.88;100.00;97240.69;4973060;28;20030;-36
2023/05/20 06:59:34;;;;;;;6.75;5.10;;;16.30;99.90;;;16.02;100.00;97244.22;4970614;28;20113;-35
2023/05/20 07:02:00;;;;;;;6.80;4.38;;;16.40;99.90;;;15.93;100.00;97244.75;4966964;28;20034;-36
2023/05/20 07:04:25;;;;;;;8.20;4.38;;;16.30;99.90;;;15.95;100.00;97234.03;4973476;28;20045;-37
2023/05/20 07:06:51;;;;;;;7.78;5.07;;;16.20;99.90;;;15.84;100.00;97240.00;4970889;28;20053;-37
2023/05/20 07:09:17;;;;;;;6.95;4.63;;;16.20;99.90;;;15.84;100.00;97235.56;4970582;28;20052;-37
2023/05/20 07:11:42;;;;;;;6.28;4.07;;;16.30;99.90;;;15.98;100.00;97212.59;4971747;28;20479;-37
2023/05/20 07:14:09;;;;;;;5.43;3.85;;;16.40;99.90;;;16.26;100.00;97229.47;4972121;28;20034;-37
2023/05/20 07:16:35;;;;;;;6.43;4.15;;;16.60;99.90;;;16.45;100.00;97224.72;4970209;28;20034;-37
2023/05/20 07:19:01;;;;;;;6.45;4.18;;;16.70;99.90;;;16.92;100.00;97207.53;4970261;28;20053;-37
2023/05/20 07:21:27;;;;;;;6.50;3.95;;;17.10;99.90;;;17.04;100.00;97208.50;4956057;28;20038;-37
2023/05/20 07:23:53;;;;;;;7.43;5.00;;;17.30;99.90;;;17.15;93.71;97208.63;4958371;28;20058;-37
2023/05/20 07:26:19;;;;;;;6.13;4.45;;;17.50;99.90;;;17.30;92.68;97204.13;4965560;28;20050;-37
2023/05/20 07:28:45;;;;;;;7.53;4.60;;;17.60;99.90;;;17.43;94.01;97213.94;4969638;28;20125;-37
2023/05/20 07:31:12;;;;;;;6.00;4.85;;;17.70;99.90;;;17.51;89.32;97200.94;4966357;28;20031;-37
2023/05/20 07:33:38;;;;;;;5.05;3.90;;;17.90;99.90;;;17.63;89.13;97191.25;4969755;28;20038;-37
2023/05/20 07:36:04;;;;;;;5.05;3.75;;;17.90;99.90;;;17.65;91.94;97205.34;4986033;28;20037;-37
2023/05/20 07:38:29;;;;;;;4.68;3.80;;;17.90;99.90;;;17.59;91.03;97203.94;4990145;23;20042;-37
2023/05/20 07:40:55;;;;;;;5.47;3.95;;;17.90;99.90;;;17.59;90.28;97205.78;4985797;28;20034;-35
2023/05/20 07:43:21;;;;;;;10.13;4.75;;;17.80;99.90;;;17.49;90.99;97202.84;4983503;28;20026;-36
2023/05/20 07:45:47;;;;;;;5.82;4.20;;;17.80;99.90;;;17.66;89.49;97205.22;4984861;28;20037;-36
2023/05/20 07:48:13;;;;;;;5.20;3.80;;;18.00;99.90;;;17.78;87.76;97200.84;4980510;28;20140;-35
2023/05/20 07:50:39;;;;;;;7.25;4.28;;;18.10;99.90;;;17.74;84.52;97197.53;4978618;28;20030;-36
2023/05/20 07:53:05;;;;;;;5.78;4.80;;;18.10;99.90;;;17.66;85.72;97191.91;4979770;28;20033;-37
2023/05/20 07:55:35;;;;;;;4.85;4.10;;;18.00;99.90;;;17.34;87.41;97178.09;4989142;28;20022;-37
2023/05/20 07:58:02;;;;;;;6.38;4.45;;;17.80;99.90;;;17.39;90.26;97189.31;4993233;28;20060;-37
2023/05/20 08:00:27;;;;;;;8.23;4.72;;;17.80;99.90;;;17.50;89.15;97193.91;4992521;28;20376;-37
2023/05/20 08:02:53;;;;;;;6.03;4.40;;;17.90;99.90;;;17.58;90.43;97186.22;4992857;28;20037;-37
2023/05/20 08:05:19;;;;;;;4.25;3.53;;;17.90;99.90;;;17.56;90.27;97193.47;4992600;28;20041;-37
2023/05/20 08:07:44;;;;;;;8.27;3.95;;;17.90;99.90;;;17.43;93.18;97184.63;4991320;28;20053;-38
2023/05/20 08:10:10;;;;;;;6.22;4.30;;;17.80;99.90;;;17.30;95.17;97172.13;4994681;28;20441;-37
2023/05/20 08:12:36;;;;;;;6.30;3.80;;;17.70;99.90;;;17.28;92.73;97184.72;4994115;28;20053;-37
2023/05/20 08:15:03;;;;;;;7.22;4.18;;;17.60;99.90;;;17.31;94.32;97192.47;4996078;28;20069;-36
2023/05/20 08:17:28;;;;;;;5.00;4.00;;;17.70;99.90;;;17.50;93.00;97185.91;4995197;28;20617;-36
2023/05/20 08:19:54;;;;;;;6.72;5.32;;;17.80;99.90;;;17.56;93.43;97189.00;4991475;28;20046;-36
2023/05/20 08:22:20;;;;;;;5.85;4.13;;;18.00;99.90;;;17.64;91.37;97198.28;4990210;28;20030;-37
2023/05/20 08:24:45;;;;;;;5.55;4.40;;;18.10;99.90;;;17.61;88.87;97199.34;4995592;28;20033;-36
2023/05/20 08:27:11;;;;;;;7.57;4.47;;;18.00;99.90;;;17.50;89.59;97194.75;4991603;28;20041;-36
2023/05/20 08:29:37;;;;;;;7.00;4.30;;;18.00;99.90;;;17.36;91.54;97201.03;4994601;28;20034;-36
2023/05/20 08:32:03;;;;;;;6.13;4.75;;;17.90;99.90;;;17.22;91.64;97205.59;4992019;28;20037;-36
2023/05/20 08:34:28;;;;;;;9.45;4.78;;;17.80;99.90;;;17.12;90.57;97194.66;4992337;28;20041;-36
2023/05/20 08:36:55;;;;;;;6.45;4.32;;;17.70;99.90;;;17.24;94.50;97198.34;4993488;28;21321;-36
2023/05/20 08:39:21;;;;;;;5.20;3.90;;;17.80;99.90;;;17.29;93.79;97199.72;4995425;28;20087;-36
2023/05/20 08:41:47;;;;;;;7.53;4.10;;;17.70;99.90;;;17.34;93.50;97200.28;4998272;28;20034;-36
2023/05/20 08:44:13;;;;;;;4.88;4.28;;;17.80;99.90;;;17.30;91.52;97188.13;4997986;28;20057;-36
2023/05/20 08:46:40;;;;;;;7.85;4.57;;;17.80;99.90;;;17.42;91.50;97205.09;4992277;28;20124;-36
2023/05/20 08:49:06;;;;;;;8.27;4.45;;;17.80;99.90;;;17.34;91.95;97186.94;4995840;28;20398;-36
2023/05/20 08:51:35;;;;;;;5.20;3.95;;;17.80;99.90;;;17.47;93.54;97199.44;5003658;28;20050;-36
2023/05/20 08:54:02;;;;;;;5.88;3.88;;;17.80;99.90;;;17.43;94.83;97200.63;4996192;28;20048;-36
2023/05/20 08:56:28;;;;;;;4.53;3.58;;;17.80;99.90;;;17.41;94.81;97178.53;4995244;28;20153;-36
2023/05/20 08:58:54;;;;;;;5.43;4.63;;;18.00;99.90;;;17.66;89.59;97201.72;4991501;28;20033;-36
2023/05/20 09:01:25;;;;;;;6.70;4.82;;;18.10;99.90;;;17.91;87.86;97200.91;4994733;28;20030;-36
2023/05/20 09:03:51;;;;;;;7.37;4.60;;;18.30;99.90;;;18.12;84.63;97202.06;4990794;28;20207;-37
2023/05/20 09:06:20;;;;;;;5.85;3.88;;;18.50;99.90;;;18.29;82.55;97187.50;4997157;28;20454;-36
2023/05/20 09:08:52;;;;;;;5.85;4.68;;;18.70;99.90;;;18.63;81.00;97190.41;4992803;28;20030;-36
2023/05/20 09:11:20;;;;;;;5.10;4.10;;;19.00;99.90;;;18.74;79.60;97184.28;4997613;28;20080;-36
2023/05/20 09:13:46;;;;;;;5.15;3.88;;;19.20;99.90;;;18.78;79.31;97187.59;4998527;28;20026;-36
2023/05/20 09:16:12;;;;;;;6.97;3.92;;;19.20;99.90;;;19.00;80.09;97184.19;4995541;28;20524;-36
2023/05/20 09:18:39;;;;;;;6.10;4.38;;;19.30;99.90;;;19.07;78.45;97180.09;4990290;28;20026;-36
2023/05/20 09:21:08;;;;;;;4.80;3.90;;;19.50;99.90;;;19.23;76.88;97186.00;4988507;28;20040;-36
2023/05/20 09:23:37;;;;;;;6.63;4.88;;;19.60;99.90;;;19.08;73.66;97185.34;4994227;28;20026;-36
2023/05/20 09:26:03;;;;;;;5.28;4.20;;;19.50;99.90;;;19.07;75.62;97175.59;4995121;28;20048;-36
2023/05/20 09:28:29;;;;;;;5.55;3.78;;;19.40;99.90;;;19.05;80.81;97188.22;4994025;28;20650;-36
2023/05/20 09:30:58;;;;;;;6.28;4.38;;;19.30;99.90;;;18.86;75.54;97187.88;4993340;28;20121;-36
2023/05/20 09:33:30;;;;;;;4.80;4.28;;;19.20;99.90;;;18.87;73.90;97187.78;4993060;28;20026;-36
2023/05/20 09:36:04;;;;;;;6.53;5.05;;;19.10;99.90;;;18.66;77.17;97183.97;4993329;28;20417;-36
2023/05/20 09:38:37;;;;;;;5.97;4.45;;;18.90;99.90;;;18.44;78.08;97174.03;4990886;28;20120;-36
2023/05/20 09:41:07;;;;;;;7.93;4.15;;;18.80;99.90;;;18.54;76.28;97176.88;4996637;28;20036;-36
2023/05/20 09:43:35;;;;;;;4.68;3.97;;;18.80;99.90;;;18.55;75.90;97173.25;4996406;28;20029;-36
2023/05/20 09:46:03;;;;;;;4.18;3.40;;;18.80;99.90;;;18.74;78.28;97170.09;4991308;28;20301;-36
2023/05/20 09:48:32;;;;;;;6.30;4.90;;;19.00;99.90;;;19.09;80.00;97172.81;4988734;28;20037;-36
2023/05/20 09:50:58;;;;;;;8.07;5.25;;;19.30;99.90;;;19.21;73.77;97169.22;4993117;28;20033;-36
2023/05/20 09:53:27;;;;;;;5.53;4.60;;;19.60;99.90;;;19.49;74.10;97168.94;5000553;28;20048;-36
2023/05/20 09:55:54;;;;;;;6.35;4.18;;;19.90;99.90;;;19.94;74.71;97175.25;4992081;28;20498;-36
2023/05/20 09:58:21;;;;;;;7.43;4.55;;;20.30;99.90;;;20.23;64.84;97172.09;4995415;28;20022;-37
2023/05/20 10:00:47;;;;;;;5.72;4.57;;;20.60;99.90;;;20.47;68.66;97165.75;4993352;28;20049;-36
2023/05/20 10:03:13;;;;;;;5.43;4.25;;;20.90;99.90;;;20.78;65.05;97161.44;4989636;28;20344;-36
2023/05/20 10:05:49;;;;;;;5.78;4.93;;;21.20;99.90;;;21.10;63.31;97156.09;4989789;28;20145;-37
2023/05/20 10:08:40;;;;;;;7.63;4.38;;;21.50;99.90;;;21.52;59.72;97147.28;4992352;28;20033;-36
2023/05/20 10:11:27;;;;;;;6.53;4.60;;;21.90;99.90;;;21.46;58.65;97147.78;5013435;28;20359;-37
2023/05/20 10:14:38;;;;;;;7.80;4.40;;;22.00;99.90;;;21.35;60.94;97143.28;4993708;28;20758;-37